createdAt,value
2023-01-07T00:01:05.034Z,-20330.38
2023-01-07T00:02:07.559Z,-20328.16
2023-01-07T00:03:11.647Z,-20329.25
2023-01-07T00:04:15.841Z,-20330.75
2023-01-07T00:05:18.364Z,-20330.75
2023-01-07T00:06:29.650Z,-20332.22
2023-01-07T00:07:32.165Z,-20332.41
2023-01-07T00:08:37.328Z,-20337.75
2023-01-07T00:09:39.965Z,-20335.53
2023-01-07T00:10:42.490Z,-20336.09
2023-01-07T00:11:45.374Z,-20340.34
2023-01-07T00:12:48.024Z,-20341.81
2023-01-07T00:13:52.092Z,-20342.56
2023-01-07T00:14:54.979Z,-20341.06
2023-01-07T00:16:01.514Z,-20342.94
2023-01-07T00:17:04.098Z,-20342.56
2023-01-07T00:18:06.860Z,-20344.03
2023-01-07T00:19:14.301Z,-20346.63
2023-01-07T00:20:17.192Z,-20347.53
2023-01-07T00:21:21.510Z,-20348.84
2023-01-07T00:22:24.524Z,-20349.94
2023-01-07T00:23:30.270Z,-20351.41
2023-01-07T00:24:33.416Z,-20349.94
2023-01-07T00:25:36.518Z,-20351.97
2023-01-07T00:26:41.196Z,-20355.66
2023-01-07T00:27:44.316Z,-20355.84
2023-01-07T00:28:49.722Z,-20357.69
2023-01-07T00:29:52.839Z,-20358.44
2023-01-07T00:31:07.898Z,-20362.13
2023-01-07T00:32:11.089Z,-20360.28
2023-01-07T00:33:16.009Z,-20362.50
2023-01-07T00:34:23.808Z,-20363.41
2023-01-07T00:35:27.050Z,-20364.34
2023-01-07T00:36:32.372Z,-20365.81
2023-01-07T00:37:50.572Z,-20364.72
2023-01-07T00:39:18.174Z,-20368.78
2023-01-07T00:40:22.137Z,-20369.13
2023-01-07T00:41:25.865Z,-20369.50
2023-01-07T00:42:47.461Z,-20368.03
2023-01-07T00:43:50.583Z,-20370.63
2023-01-07T00:44:53.709Z,-20371.34
2023-01-07T00:45:56.945Z,-20372.66
2023-01-07T00:47:00.655Z,-20375.41
2023-01-07T00:48:05.350Z,-20376.72
2023-01-07T00:49:08.710Z,-20377.63
2023-01-07T00:50:12.197Z,-20375.78
2023-01-07T00:51:17.003Z,-20377.81
2023-01-07T00:52:20.479Z,-20378.00
2023-01-07T00:53:25.770Z,-20380.94
2023-01-07T00:54:29.009Z,-20379.28
2023-01-07T00:55:33.087Z,-20379.47
2023-01-07T00:56:35.975Z,-20380.94
2023-01-07T00:57:38.965Z,-20381.31
2023-01-07T00:58:42.459Z,-20382.06
2023-01-07T00:59:45.330Z,-20383.16
2023-01-07T01:00:48.119Z,-20383.72
2023-01-07T01:01:51.035Z,-20382.06
2023-01-07T01:02:54.292Z,-20382.81
2023-01-07T01:03:56.979Z,-20384.28
2023-01-07T01:04:59.550Z,-20384.09
2023-01-07T01:06:08.619Z,-20387.97
2023-01-07T01:07:11.501Z,-20386.13
2023-01-07T01:08:14.261Z,-20387.59
2023-01-07T01:09:17.027Z,-20389.06
2023-01-07T01:10:20.556Z,-20391.47
2023-01-07T01:11:23.194Z,-20390.38
2023-01-07T01:12:25.714Z,-20390.56
2023-01-07T01:13:28.237Z,-20391.47
2023-01-07T01:14:30.885Z,-20391.47
2023-01-07T01:15:33.478Z,-20393.13
2023-01-07T01:16:36.091Z,-20394.25
2023-01-07T01:17:39.877Z,-20395.34
2023-01-07T01:18:43.079Z,-20394.78
2023-01-07T01:19:45.760Z,-20396.47
2023-01-07T01:20:48.525Z,-20397.00
2023-01-07T01:21:51.406Z,-20397.56
2023-01-07T01:22:53.929Z,-20397.94
2023-01-07T01:23:56.686Z,-20398.69
2023-01-07T01:24:59.207Z,-20398.69
2023-01-07T01:26:07.571Z,-20401.44
2023-01-07T01:27:10.132Z,-20399.78
2023-01-07T01:28:12.893Z,-20400.53
2023-01-07T01:29:15.410Z,-20401.81
2023-01-07T01:30:18.027Z,-20402.00
2023-01-07T01:31:20.736Z,-20402.19
2023-01-07T01:32:26.911Z,-20403.47
2023-01-07T01:33:30.417Z,-20403.09
2023-01-07T01:34:33.057Z,-20402.75
2023-01-07T01:35:40.138Z,-20405.31
2023-01-07T01:36:42.897Z,-20404.75
2023-01-07T01:37:45.409Z,-20405.69
2023-01-07T01:38:48.651Z,-20406.06
2023-01-07T01:39:51.293Z,-20406.81
2023-01-07T01:40:53.825Z,-20406.44
2023-01-07T01:41:56.814Z,-20407.53
2023-01-07T01:42:59.455Z,-20407.53
2023-01-07T01:44:23.094Z,-20407.91
2023-01-07T01:45:26.337Z,-20409.00
2023-01-07T01:46:37.817Z,-20410.47
2023-01-07T01:47:46.859Z,-20410.13
2023-01-07T01:48:55.980Z,-20410.84
2023-01-07T01:50:17.577Z,-20412.69
2023-01-07T01:51:24.537Z,-20412.34
2023-01-07T01:52:56.703Z,-20413.81
2023-01-07T01:53:59.470Z,-20411.41
2023-01-07T01:55:05.235Z,-20413.44
2023-01-07T01:56:16.747Z,-20414.19
2023-01-07T01:57:21.544Z,-20414.38
2023-01-07T01:58:40.992Z,-20416.03
2023-01-07T01:59:48.427Z,-20416.03
2023-01-07T02:00:52.198Z,-20414.53
2023-01-07T02:01:55.305Z,-20414.72
2023-01-07T02:02:59.950Z,-20415.09
2023-01-07T02:04:07.760Z,-20416.22
2023-01-07T02:05:10.765Z,-20414.53
2023-01-07T02:06:25.643Z,-20415.66
2023-01-07T02:07:29.725Z,-20415.28
2023-01-07T02:08:33.679Z,-20414.91
2023-01-07T02:09:41.483Z,-20415.66
2023-01-07T02:10:45.092Z,-20416.03
2023-01-07T02:12:09.087Z,-20419.53
2023-01-07T02:13:17.614Z,-20416.75
2023-01-07T02:14:20.013Z,-20416.38
2023-01-07T02:15:25.662Z,-20417.13
2023-01-07T02:16:33.894Z,-20417.13
2023-01-07T02:17:58.417Z,-20418.78
2023-01-07T02:19:17.260Z,-20417.13
2023-01-07T02:20:47.147Z,-20422.50
2023-01-07T02:22:11.503Z,-20421.56
2023-01-07T02:23:26.512Z,-20421.38
2023-01-07T02:24:55.445Z,-20420.28
2023-01-07T02:26:40.790Z,-20421.56
2023-01-07T02:28:05.643Z,-20422.31
2023-01-07T02:29:33.236Z,-20421.00
2023-01-07T02:30:55.802Z,-20421.75
2023-01-07T02:32:19.683Z,-20422.66
2023-01-07T02:33:22.807Z,-20419.72
2023-01-07T02:35:03.017Z,-20424.88
2023-01-07T02:36:38.287Z,-20423.03
2023-01-07T02:38:12.968Z,-20425.25
2023-01-07T02:39:39.375Z,-20425.25
2023-01-07T02:41:09.139Z,-20426.00
2023-01-07T02:42:18.018Z,-20426.38
2023-01-07T02:43:26.299Z,-20427.09
2023-01-07T02:44:37.708Z,-20428.59
2023-01-07T02:45:50.327Z,-20429.31
2023-01-07T02:47:16.958Z,-20428.94
2023-01-07T02:48:24.507Z,-20428.78
2023-01-07T02:49:28.226Z,-20425.81
2023-01-07T02:50:31.480Z,-20427.09
2023-01-07T02:51:39.879Z,-20427.66
2023-01-07T02:52:43.117Z,-20426.00
2023-01-07T02:53:48.994Z,-20428.22
2023-01-07T02:55:15.518Z,-20430.06
2023-01-07T02:56:42.160Z,-20430.97
2023-01-07T02:58:14.920Z,-20429.69
2023-01-07T02:59:32.570Z,-20430.78
2023-01-07T03:01:08.503Z,-20431.53
2023-01-07T03:02:42.414Z,-20430.97
2023-01-07T03:04:08.612Z,-20431.34
2023-01-07T03:05:29.576Z,-20428.78
2023-01-07T03:06:50.458Z,-20431.91
2023-01-07T03:08:45.673Z,-20432.66
2023-01-07T03:10:34.263Z,-20432.09
2023-01-07T03:11:45.711Z,-20431.34
2023-01-07T03:12:58.641Z,-20431.16
2023-01-07T03:14:08.953Z,-20430.97
2023-01-07T03:15:22.677Z,-20431.91
2023-01-07T03:16:32.723Z,-20431.34
2023-01-07T03:17:42.606Z,-20431.91
2023-01-07T03:19:03.075Z,-20432.66
2023-01-07T03:20:07.076Z,-20432.28
2023-01-07T03:21:14.359Z,-20432.84
2023-01-07T03:22:20.764Z,-20433.75
2023-01-07T03:23:26.648Z,-20434.31
2023-01-07T03:24:31.444Z,-20434.13
2023-01-07T03:25:39.245Z,-20433.94
2023-01-07T03:26:49.825Z,-20436.34
2023-01-07T03:27:53.851Z,-20436.72
2023-01-07T03:29:00.980Z,-20437.81
2023-01-07T03:30:09.462Z,-20437.81
2023-01-07T03:31:15.864Z,-20436.34
2023-01-07T03:32:25.088Z,-20438.91
2023-01-07T03:33:36.339Z,-20439.66
2023-01-07T03:34:39.726Z,-20438.19
2023-01-07T03:35:47.420Z,-20439.28
2023-01-07T03:36:58.692Z,-20440.56
2023-01-07T03:38:04.668Z,-20439.66
2023-01-07T03:39:11.057Z,-20440.03
2023-01-07T03:40:14.174Z,-20437.81
2023-01-07T03:41:37.340Z,-20438.56
2023-01-07T03:42:41.790Z,-20439.66
2023-01-07T03:43:53.897Z,-20438.56
2023-01-07T03:44:57.615Z,-20440.75
2023-01-07T03:46:02.163Z,-20439.47
2023-01-07T03:47:05.182Z,-20440.75
2023-01-07T03:48:07.944Z,-20440.03
2023-01-07T03:49:13.337Z,-20440.41
2023-01-07T03:50:17.305Z,-20440.56
2023-01-07T03:51:20.899Z,-20440.56
2023-01-07T03:52:23.441Z,-20440.94
2023-01-07T03:53:26.078Z,-20441.13
2023-01-07T03:54:29.064Z,-20443.72
2023-01-07T03:55:32.060Z,-20442.25
2023-01-07T03:56:34.954Z,-20440.75
2023-01-07T03:57:37.948Z,-20440.75
2023-01-07T03:58:40.703Z,-20442.25
2023-01-07T03:59:43.230Z,-20441.31
2023-01-07T04:00:45.932Z,-20440.94
2023-01-07T04:01:53.143Z,-20442.63
2023-01-07T04:02:56.207Z,-20441.88
2023-01-07T04:04:04.057Z,-20441.50
2023-01-07T04:05:07.354Z,-20441.50
2023-01-07T04:06:10.001Z,-20440.41
2023-01-07T04:07:13.837Z,-20441.50
2023-01-07T04:08:16.483Z,-20440.03
2023-01-07T04:09:19.011Z,-20439.66
2023-01-07T04:10:22.364Z,-20441.69
2023-01-07T04:11:24.881Z,-20440.75
2023-01-07T04:12:27.437Z,-20441.88
2023-01-07T04:13:30.678Z,-20441.13
2023-01-07T04:14:33.169Z,-20441.69
2023-01-07T04:15:35.942Z,-20441.69
2023-01-07T04:16:38.828Z,-20441.69
2023-01-07T04:17:42.052Z,-20440.56
2023-01-07T04:18:44.814Z,-20440.75
2023-01-07T04:19:47.575Z,-20442.25
2023-01-07T04:20:50.337Z,-20443.16
2023-01-07T04:21:53.099Z,-20441.50
2023-01-07T04:22:55.862Z,-20442.06
2023-01-07T04:23:58.782Z,-20442.78
2023-01-07T04:25:02.235Z,-20443.72
2023-01-07T04:26:06.547Z,-20442.78
2023-01-07T04:27:09.797Z,-20444.09
2023-01-07T04:28:12.790Z,-20441.88
2023-01-07T04:29:16.031Z,-20440.94
2023-01-07T04:30:19.152Z,-20442.63
2023-01-07T04:31:22.280Z,-20441.50
2023-01-07T04:32:25.769Z,-20443.72
2023-01-07T04:33:28.882Z,-20444.09
2023-01-07T04:34:32.238Z,-20444.47
2023-01-07T04:35:35.839Z,-20444.09
2023-01-07T04:36:39.323Z,-20443.34
2023-01-07T04:37:42.446Z,-20443.91
2023-01-07T04:38:45.567Z,-20443.72
2023-01-07T04:39:48.810Z,-20445.19
2023-01-07T04:40:51.937Z,-20445.19
2023-01-07T04:41:55.050Z,-20444.81
2023-01-07T04:42:58.174Z,-20445.56
2023-01-07T04:44:01.423Z,-20444.63
2023-01-07T04:45:04.897Z,-20443.91
2023-01-07T04:46:08.117Z,-20442.78
2023-01-07T04:47:12.103Z,-20443.72
2023-01-07T04:48:15.581Z,-20442.78
2023-01-07T04:49:18.703Z,-20444.09
2023-01-07T04:50:23.025Z,-20445.94
2023-01-07T04:51:26.525Z,-20446.31
2023-01-07T04:52:29.869Z,-20446.69
2023-01-07T04:53:33.366Z,-20444.09
2023-01-07T04:54:37.920Z,-20444.63
2023-01-07T04:55:41.275Z,-20445.19
2023-01-07T04:56:44.756Z,-20443.34
2023-01-07T04:57:48.850Z,-20443.16
2023-01-07T04:58:52.799Z,-20444.47
2023-01-07T04:59:56.279Z,-20444.81
2023-01-07T05:01:00.200Z,-20445.19
2023-01-07T05:02:04.791Z,-20444.47
2023-01-07T05:03:07.923Z,-20444.28
2023-01-07T05:04:11.570Z,-20442.63
2023-01-07T05:05:14.407Z,-20442.97
2023-01-07T05:06:16.933Z,-20444.81
2023-01-07T05:07:19.692Z,-20444.63
2023-01-07T05:08:23.182Z,-20444.09
2023-01-07T05:09:25.817Z,-20443.34
2023-01-07T05:10:28.462Z,-20441.88
2023-01-07T05:11:31.341Z,-20441.88
2023-01-07T05:12:38.191Z,-20443.91
2023-01-07T05:13:43.709Z,-20443.91
2023-01-07T05:14:46.512Z,-20443.34
2023-01-07T05:15:49.874Z,-20444.47
2023-01-07T05:16:52.762Z,-20443.34
2023-01-07T05:17:55.278Z,-20442.25
2023-01-07T05:18:59.674Z,-20442.63
2023-01-07T05:20:02.731Z,-20444.28
2023-01-07T05:21:05.597Z,-20441.88
2023-01-07T05:22:10.161Z,-20442.25
2023-01-07T05:23:15.099Z,-20443.34
2023-01-07T05:24:19.519Z,-20443.34
2023-01-07T05:25:22.124Z,-20442.97
2023-01-07T05:26:25.047Z,-20442.25
2023-01-07T05:27:28.405Z,-20443.34
2023-01-07T05:28:30.928Z,-20442.63
2023-01-07T05:29:33.570Z,-20442.06
2023-01-07T05:30:36.600Z,-20441.13
2023-01-07T05:31:39.701Z,-20441.69
2023-01-07T05:32:43.288Z,-20441.69
2023-01-07T05:33:45.810Z,-20441.88
2023-01-07T05:34:48.807Z,-20439.28
2023-01-07T05:35:51.932Z,-20441.50
2023-01-07T05:36:54.687Z,-20442.63
2023-01-07T05:37:57.329Z,-20440.75
2023-01-07T05:39:00.123Z,-20442.25
2023-01-07T05:40:02.859Z,-20442.25
2023-01-07T05:41:05.733Z,-20441.13
2023-01-07T05:42:08.379Z,-20440.75
2023-01-07T05:43:11.140Z,-20439.84
2023-01-07T05:44:13.795Z,-20439.66
2023-01-07T05:45:16.446Z,-20441.88
2023-01-07T05:46:19.239Z,-20441.13
2023-01-07T05:47:21.951Z,-20441.13
2023-01-07T05:48:24.574Z,-20442.25
2023-01-07T05:49:27.096Z,-20441.88
2023-01-07T05:50:29.622Z,-20441.88
2023-01-07T05:51:32.388Z,-20442.25
2023-01-07T05:52:35.017Z,-20443.34
2023-01-07T05:53:37.789Z,-20442.97
2023-01-07T05:54:40.310Z,-20442.44
2023-01-07T05:55:42.821Z,-20441.69
2023-01-07T05:56:45.465Z,-20441.13
2023-01-07T05:57:47.990Z,-20440.75
2023-01-07T05:58:50.502Z,-20440.75
2023-01-07T05:59:53.022Z,-20440.94
2023-01-07T06:00:55.976Z,-20439.66
2023-01-07T06:01:58.672Z,-20440.94
2023-01-07T06:03:01.086Z,-20439.66
2023-01-07T06:04:03.587Z,-20440.94
2023-01-07T06:05:06.649Z,-20440.94
2023-01-07T06:06:09.237Z,-20441.69
2023-01-07T06:07:11.756Z,-20441.31
2023-01-07T06:08:14.765Z,-20440.75
2023-01-07T06:09:17.283Z,-20441.13
2023-01-07T06:10:19.797Z,-20440.41
2023-01-07T06:11:22.442Z,-20440.75
2023-01-07T06:12:24.965Z,-20440.75
2023-01-07T06:13:27.484Z,-20439.84
2023-01-07T06:14:30.008Z,-20438.91
2023-01-07T06:15:32.620Z,-20439.09
2023-01-07T06:16:35.570Z,-20439.47
2023-01-07T06:17:38.321Z,-20438.19
2023-01-07T06:18:40.814Z,-20440.03
2023-01-07T06:19:43.753Z,-20440.03
2023-01-07T06:20:46.335Z,-20440.03
2023-01-07T06:21:50.063Z,-20442.25
2023-01-07T06:22:52.944Z,-20440.94
2023-01-07T06:23:56.186Z,-20440.75
2023-01-07T06:24:58.947Z,-20442.25
2023-01-07T06:26:01.705Z,-20443.16
2023-01-07T06:27:04.718Z,-20442.06
2023-01-07T06:28:07.606Z,-20442.78
2023-01-07T06:29:11.089Z,-20442.78
2023-01-07T06:30:14.189Z,-20442.25
2023-01-07T06:31:17.385Z,-20442.78
2023-01-07T06:32:20.555Z,-20442.78
2023-01-07T06:33:23.925Z,-20443.16
2023-01-07T06:34:27.039Z,-20443.72
2023-01-07T06:35:30.163Z,-20442.63
2023-01-07T06:36:33.287Z,-20443.72
2023-01-07T06:37:36.402Z,-20444.28
2023-01-07T06:38:39.644Z,-20445.38
2023-01-07T06:39:42.764Z,-20445.56
2023-01-07T06:40:45.885Z,-20446.50
2023-01-07T06:41:49.009Z,-20446.31
2023-01-07T06:42:52.132Z,-20447.41
2023-01-07T06:43:55.374Z,-20447.22
2023-01-07T06:44:58.615Z,-20446.13
2023-01-07T06:46:01.795Z,-20446.31
2023-01-07T06:47:05.102Z,-20447.41
2023-01-07T06:48:08.223Z,-20447.78
2023-01-07T06:49:11.342Z,-20449.44
2023-01-07T06:50:15.915Z,-20449.63
2023-01-07T06:51:19.264Z,-20449.63
2023-01-07T06:52:22.401Z,-20448.16
2023-01-07T06:53:25.756Z,-20448.53
2023-01-07T06:54:28.866Z,-20448.69
2023-01-07T06:55:32.114Z,-20449.25
2023-01-07T06:56:35.233Z,-20450.38
2023-01-07T06:57:38.476Z,-20450.53
2023-01-07T06:58:41.722Z,-20448.88
2023-01-07T06:59:44.974Z,-20449.63
2023-01-07T07:00:48.199Z,-20450.00
2023-01-07T07:01:51.710Z,-20450.00
2023-01-07T07:02:54.737Z,-20450.19
2023-01-07T07:03:57.691Z,-20448.88
2023-01-07T07:05:00.689Z,-20449.63
2023-01-07T07:06:03.689Z,-20449.25
2023-01-07T07:07:06.690Z,-20449.06
2023-01-07T07:08:09.571Z,-20449.44
2023-01-07T07:09:12.331Z,-20448.53
2023-01-07T07:10:14.993Z,-20449.44
2023-01-07T07:11:17.623Z,-20449.63
2023-01-07T07:12:20.374Z,-20448.53
2023-01-07T07:13:22.995Z,-20448.16
2023-01-07T07:14:25.599Z,-20448.16
2023-01-07T07:15:28.432Z,-20447.59
2023-01-07T07:16:32.641Z,-20446.69
2023-01-07T07:17:35.388Z,-20447.41
2023-01-07T07:18:37.963Z,-20447.41
2023-01-07T07:19:40.593Z,-20447.03
2023-01-07T07:20:43.192Z,-20446.69
2023-01-07T07:21:47.196Z,-20448.88
2023-01-07T07:22:49.682Z,-20447.78
2023-01-07T07:23:52.357Z,-20447.03
2023-01-07T07:24:54.883Z,-20446.13
2023-01-07T07:25:57.405Z,-20445.00
2023-01-07T07:27:00.399Z,-20445.00
2023-01-07T07:28:03.075Z,-20444.09
2023-01-07T07:29:05.562Z,-20443.72
2023-01-07T07:30:08.694Z,-20445.75
2023-01-07T07:31:11.580Z,-20444.28
2023-01-07T07:32:14.211Z,-20443.91
2023-01-07T07:33:19.388Z,-20444.09
2023-01-07T07:34:22.339Z,-20444.81
2023-01-07T07:35:24.897Z,-20445.75
2023-01-07T07:36:27.419Z,-20445.38
2023-01-07T07:37:30.174Z,-20444.81
2023-01-07T07:38:32.781Z,-20444.81
2023-01-07T07:39:35.452Z,-20445.19
2023-01-07T07:40:37.991Z,-20445.94
2023-01-07T07:41:40.613Z,-20447.03
2023-01-07T07:43:10.169Z,-20446.31
2023-01-07T07:44:07.492Z,-20446.31
2023-01-07T07:45:10.612Z,-20446.31
2023-01-07T07:46:13.286Z,-20446.69
2023-01-07T07:47:16.279Z,-20447.03
2023-01-07T07:48:18.899Z,-20445.56
2023-01-07T07:49:21.534Z,-20445.19
2023-01-07T07:50:24.175Z,-20446.69
2023-01-07T07:51:27.062Z,-20447.03
2023-01-07T07:52:29.579Z,-20445.56
2023-01-07T07:53:32.223Z,-20447.41
2023-01-07T07:54:35.218Z,-20447.41
2023-01-07T07:55:38.599Z,-20447.59
2023-01-07T07:56:41.219Z,-20447.41
2023-01-07T07:57:43.752Z,-20448.16
2023-01-07T07:58:46.263Z,-20448.88
2023-01-07T07:59:48.780Z,-20449.81
2023-01-07T08:00:51.326Z,-20450.00
2023-01-07T08:01:53.890Z,-20450.00
2023-01-07T08:02:59.970Z,-20451.66
2023-01-07T08:04:02.595Z,-20449.25
2023-01-07T08:05:05.704Z,-20449.63
2023-01-07T08:06:08.344Z,-20451.28
2023-01-07T08:07:12.196Z,-20451.66
2023-01-07T08:08:15.197Z,-20451.09
2023-01-07T08:09:17.720Z,-20449.25
2023-01-07T08:10:20.957Z,-20451.47
2023-01-07T08:11:23.476Z,-20452.94
2023-01-07T08:12:25.997Z,-20453.69
2023-01-07T08:13:30.559Z,-20454.44
2023-01-07T08:14:33.198Z,-20452.94
2023-01-07T08:15:36.446Z,-20453.31
2023-01-07T08:16:39.030Z,-20454.06
2023-01-07T08:17:41.605Z,-20454.59
2023-01-07T08:18:44.260Z,-20454.44
2023-01-07T08:19:46.768Z,-20453.88
2023-01-07T08:20:49.890Z,-20454.25
2023-01-07T08:21:52.537Z,-20452.94
2023-01-07T08:22:55.055Z,-20454.44
2023-01-07T08:23:57.699Z,-20454.44
2023-01-07T08:25:00.812Z,-20453.69
2023-01-07T08:26:04.190Z,-20454.97
2023-01-07T08:27:06.945Z,-20453.31
2023-01-07T08:28:11.022Z,-20454.06
2023-01-07T08:29:13.902Z,-20454.44
2023-01-07T08:30:17.403Z,-20454.44
2023-01-07T08:31:20.796Z,-20455.34
2023-01-07T08:32:24.142Z,-20454.78
2023-01-07T08:33:27.230Z,-20455.53
2023-01-07T08:34:30.352Z,-20454.78
2023-01-07T08:35:33.957Z,-20454.06
2023-01-07T08:36:37.075Z,-20453.69
2023-01-07T08:37:41.639Z,-20452.59
2023-01-07T08:38:44.765Z,-20453.13
2023-01-07T08:39:47.884Z,-20455.16
2023-01-07T08:40:51.125Z,-20454.97
2023-01-07T08:41:54.844Z,-20454.44
2023-01-07T08:43:01.925Z,-20458.13
2023-01-07T08:44:05.169Z,-20457.38
2023-01-07T08:45:10.210Z,-20457.75
2023-01-07T08:46:13.552Z,-20458.47
2023-01-07T08:47:16.813Z,-20458.84
2023-01-07T08:48:20.899Z,-20462.00
2023-01-07T08:49:24.018Z,-20464.75
2023-01-07T08:50:31.584Z,-20466.97
2023-01-07T08:51:34.696Z,-20467.72
2023-01-07T08:52:37.945Z,-20469.56
2023-01-07T08:53:41.303Z,-20465.28
2023-01-07T08:54:45.672Z,-19822.94
2023-01-07T08:55:51.145Z,-18212.78
2023-01-07T08:56:54.508Z,-17567.19
2023-01-07T08:57:57.877Z,-17890.31
2023-01-07T08:59:01.353Z,-17247.56
2023-01-07T09:00:05.801Z,-16925.03
2023-01-07T09:01:09.367Z,-16605.53
2023-01-07T09:02:18.453Z,-15638.81
2023-01-07T09:03:22.121Z,-14994.88
2023-01-07T09:04:25.244Z,-14349.72
2023-01-07T09:05:28.005Z,-13702.91
2023-01-07T09:06:31.014Z,-13057.28
2023-01-07T09:07:33.767Z,-13055.44
2023-01-07T09:08:36.766Z,-13056.41
2023-01-07T09:09:39.537Z,-13056.16
2023-01-07T09:10:42.291Z,-12732.59
2023-01-07T09:11:48.027Z,-13058.03
2023-01-07T09:12:52.134Z,-12412.00
2023-01-07T09:13:54.775Z,-12090.13
2023-01-07T09:14:57.710Z,-11444.47
2023-01-07T09:16:00.502Z,-11445.16
2023-01-07T09:17:03.182Z,-11125.22
2023-01-07T09:18:07.096Z,-10158.06
2023-01-07T09:19:09.596Z,-9512.03
2023-01-07T09:20:12.183Z,-8543.81
2023-01-07T09:21:14.833Z,-7575.03
2023-01-07T09:22:17.525Z,-7575.97
2023-01-07T09:23:20.157Z,-7252.88
2023-01-07T09:24:22.753Z,-6928.53
2023-01-07T09:25:25.441Z,-6605.16
2023-01-07T09:26:27.961Z,-6928.69
2023-01-07T09:27:30.601Z,-6606.66
2023-01-07T09:28:33.211Z,-5637.50
2023-01-07T09:29:35.846Z,-5315.19
2023-01-07T09:30:38.483Z,-4022.53
2023-01-07T09:31:41.228Z,-2728.41
2023-01-07T09:32:44.737Z,-2404.59
2023-01-07T09:33:47.171Z,-3051.03
2023-01-07T09:34:50.414Z,-3697.13
2023-01-07T09:35:53.050Z,-4019.75
2023-01-07T09:36:55.564Z,-4989.53
2023-01-07T09:37:58.086Z,-5312.13
2023-01-07T09:39:01.803Z,-5958.50
2023-01-07T09:40:07.209Z,-6603.84
2023-01-07T09:41:24.941Z,-7573.09
2023-01-07T09:42:51.348Z,-7250.41
2023-01-07T09:43:59.431Z,-7574.16
2023-01-07T09:45:23.532Z,-6929.44
2023-01-07T09:46:27.253Z,-5959.84
2023-01-07T09:47:30.253Z,-5637.56
2023-01-07T09:48:58.817Z,-4021.56
2023-01-07T09:50:14.772Z,-4345.84
2023-01-07T09:51:25.699Z,-4347.19
2023-01-07T09:52:38.655Z,-2083.78
2023-01-07T09:53:44.414Z,829.22
2023-01-07T09:54:52.216Z,3096.56
2023-01-07T09:56:10.503Z,4717.19
2023-01-07T09:57:17.917Z,7960.16
2023-01-07T09:58:22.457Z,9257.91
2023-01-07T09:59:25.219Z,10556.56
2023-01-07T10:00:29.784Z,11205.78
2023-01-07T10:01:46.823Z,11204.41
2023-01-07T10:03:01.395Z,9581.03
2023-01-07T10:04:32.903Z,9581.50
2023-01-07T10:05:57.864Z,9582.09
2023-01-07T10:07:29.064Z,10556.63
2023-01-07T10:08:47.912Z,12180.78
2023-01-07T10:10:01.110Z,12180.53
2023-01-07T10:11:34.716Z,13480.16
2023-01-07T10:13:03.428Z,14778.31
2023-01-07T10:14:21.526Z,15433.22
2023-01-07T10:15:42.564Z,18033.78
2023-01-07T10:16:55.130Z,21617.06
2023-01-07T10:18:16.511Z,25529.44
2023-01-07T10:19:42.769Z,24875.34
2023-01-07T10:20:47.934Z,22593.59
2023-01-07T10:22:04.847Z,23245.72
2023-01-07T10:23:24.210Z,24876.09
2023-01-07T10:24:28.259Z,26831.44
2023-01-07T10:25:40.750Z,25851.06
2023-01-07T10:26:48.431Z,27481.66
2023-01-07T10:27:53.377Z,26830.81
2023-01-07T10:29:02.820Z,28783.88
2023-01-07T10:30:11.942Z,27482.69
2023-01-07T10:31:23.038Z,32702.09
2023-01-07T10:32:32.347Z,33029.94
2023-01-07T10:33:35.351Z,32702.34
2023-01-07T10:34:44.957Z,32373.78
2023-01-07T10:35:56.135Z,31072.63
2023-01-07T10:37:07.393Z,31399.59
2023-01-07T10:38:19.165Z,30097.91
2023-01-07T10:39:30.318Z,35978.84
2023-01-07T10:40:43.878Z,39898.19
2023-01-07T10:41:55.879Z,44813.31
2023-01-07T10:43:20.361Z,44814.34
2023-01-07T10:44:38.378Z,45138.84
2023-01-07T10:46:02.657Z,45795.28
2023-01-07T10:47:11.614Z,44818.19
2023-01-07T10:48:38.011Z,42847.88
2023-01-07T10:50:05.625Z,43831.84
2023-01-07T10:51:38.384Z,46120.88
2023-01-07T10:53:40.182Z,41536.19
2023-01-07T10:54:45.702Z,42187.06
2023-01-07T10:56:00.584Z,40876.47
2023-01-07T10:57:10.423Z,40548.59
2023-01-07T10:58:13.545Z,42181.78
2023-01-07T10:59:20.636Z,40220.44
2023-01-07T11:00:25.430Z,39567.91
2023-01-07T11:01:40.526Z,40877.72
2023-01-07T11:02:47.089Z,39889.53
2023-01-07T11:03:53.757Z,40216.69
2023-01-07T11:04:58.204Z,42183.09
2023-01-07T11:06:09.120Z,44794.41
2023-01-07T11:07:24.967Z,43487.31
2023-01-07T11:08:39.133Z,43491.38
2023-01-07T11:09:44.527Z,43491.03
2023-01-07T11:10:48.143Z,38907.03
2023-01-07T11:11:52.093Z,38907.94
2023-01-07T11:13:07.760Z,40544.16
2023-01-07T11:14:19.939Z,45461.19
2023-01-07T11:15:33.019Z,48414.56
2023-01-07T11:16:47.703Z,48408.88
2023-01-07T11:17:56.721Z,49398.44
2023-01-07T11:19:11.002Z,50055.28
2023-01-07T11:20:13.754Z,53656.69
2023-01-07T11:21:42.685Z,53989.69
2023-01-07T11:22:47.187Z,56933.44
2023-01-07T11:23:49.950Z,58240.84
2023-01-07T11:24:59.926Z,57589.19
2023-01-07T11:26:19.634Z,58239.03
2023-01-07T11:27:25.360Z,58566.22
2023-01-07T11:28:29.244Z,55281.09
2023-01-07T11:29:42.948Z,53970.13
2023-01-07T11:30:55.637Z,54943.22
2023-01-07T11:32:04.111Z,52980.13
2023-01-07T11:33:07.493Z,51997.94
2023-01-07T11:34:23.971Z,54626.22
2023-01-07T11:35:29.095Z,57577.34
2023-01-07T11:36:42.324Z,55607.25
2023-01-07T11:37:47.452Z,56922.19
2023-01-07T11:38:50.018Z,59219.75
2023-01-07T11:39:59.830Z,56270.22
2023-01-07T11:41:05.244Z,58230.25
2023-01-07T11:42:40.766Z,57250.22
2023-01-07T11:43:49.412Z,54296.25
2023-01-07T11:45:23.846Z,56923.53
2023-01-07T11:46:28.904Z,59552.16
2023-01-07T11:47:56.719Z,64812.56
2023-01-07T11:49:01.154Z,69428.84
2023-01-07T11:50:04.295Z,71409.31
2023-01-07T11:51:11.741Z,71085.31
2023-01-07T11:52:21.576Z,70761.28
2023-01-07T11:53:31.775Z,75373.69
2023-01-07T11:54:34.415Z,82308.16
2023-01-07T11:55:37.065Z,86274.69
2023-01-07T11:56:39.816Z,85614.25
2023-01-07T11:58:00.944Z,83308.13
2023-01-07T11:59:27.576Z,87609.88
2023-01-07T12:00:31.670Z,87613.41
2023-01-07T12:01:45.828Z,93916.69
2023-01-07T12:03:11.441Z,101901.97
2023-01-07T12:04:20.138Z,102556.81
2023-01-07T12:05:24.834Z,101880.59
2023-01-07T12:06:36.579Z,102892.50
2023-01-07T12:07:45.579Z,104887.47
2023-01-07T12:08:55.305Z,109557.78
2023-01-07T12:09:57.822Z,110884.56
2023-01-07T12:11:07.552Z,119877.09
2023-01-07T12:12:37.382Z,116196.69
2023-01-07T12:13:41.996Z,116865.56
2023-01-07T12:14:48.009Z,118174.88
2023-01-07T12:15:57.833Z,107196.22
2023-01-07T12:17:09.141Z,107855.56
2023-01-07T12:18:36.156Z,117848.97
2023-01-07T12:19:53.642Z,124854.47
2023-01-07T12:21:19.684Z,119512.22
2023-01-07T12:22:40.576Z,121832.72
2023-01-07T12:23:55.450Z,118166.22
2023-01-07T12:25:22.576Z,115512.91
2023-01-07T12:26:34.706Z,118840.13
2023-01-07T12:27:59.785Z,116185.34
2023-01-07T12:29:29.660Z,118844.94
2023-01-07T12:31:03.564Z,126536.69
2023-01-07T12:33:01.704Z,126517.13
2023-01-07T12:34:16.228Z,124187.34
2023-01-07T12:35:27.024Z,127529.25
2023-01-07T12:36:36.515Z,127528.22
2023-01-07T12:37:42.761Z,132873.34
2023-01-07T12:38:54.872Z,125180.47
2023-01-07T12:40:26.436Z,124849.41
2023-01-07T12:41:39.636Z,121177.97
2023-01-07T12:42:51.521Z,122521.38
2023-01-07T12:44:20.082Z,123205.34
2023-01-07T12:45:55.358Z,135587.56
2023-01-07T12:47:32.379Z,126228.13
2023-01-07T12:48:56.687Z,133921.38
2023-01-07T12:50:11.089Z,147996.78
2023-01-07T12:51:23.941Z,147999.22
2023-01-07T12:52:56.331Z,148008.91
2023-01-07T12:54:42.657Z,148006.47
2023-01-07T12:56:03.663Z,148008.91
2023-01-07T12:57:29.100Z,148014.94